createdAt,value
2023-03-14T00:02:47.120Z,67.15
2023-03-14T00:05:49.837Z,66.91
2023-03-14T00:08:52.877Z,67.08
2023-03-14T00:11:55.481Z,66.69
2023-03-14T00:14:57.992Z,66.77
2023-03-14T00:18:01.530Z,66.66
2023-03-14T00:21:06.334Z,66.63
2023-03-14T00:24:09.433Z,66.22
2023-03-14T00:27:11.925Z,66.74
2023-03-14T00:30:15.034Z,67.08
2023-03-14T00:33:18.559Z,67.27
2023-03-14T00:36:22.390Z,67.44
2023-03-14T00:39:25.158Z,67.42
2023-03-14T00:42:28.546Z,67.38
2023-03-14T00:45:31.370Z,67.28
2023-03-14T00:48:36.989Z,67.76
2023-03-14T00:51:39.463Z,68.00
2023-03-14T00:54:42.458Z,68.89
2023-03-14T00:57:44.914Z,70.16
2023-03-14T01:00:50.261Z,70.29
2023-03-14T01:03:55.537Z,70.78
2023-03-14T01:06:58.330Z,70.62
2023-03-14T01:10:00.793Z,70.25
2023-03-14T01:13:03.806Z,69.87
2023-03-14T01:16:09.508Z,69.50
2023-03-14T01:19:13.581Z,68.94
2023-03-14T01:22:16.482Z,68.85
2023-03-14T01:25:19.783Z,68.30
2023-03-14T01:28:22.739Z,68.54
2023-03-14T01:31:26.619Z,67.85
2023-03-14T01:34:29.391Z,67.75
2023-03-14T01:37:31.978Z,68.31
2023-03-14T01:40:35.166Z,68.04
2023-03-14T01:43:38.002Z,68.50
2023-03-14T01:46:40.636Z,68.48
2023-03-14T01:49:46.823Z,69.37
2023-03-14T01:52:53.719Z,70.10
2023-03-14T01:56:00.258Z,71.18
2023-03-14T01:59:07.448Z,71.11
2023-03-14T02:02:13.708Z,71.37
2023-03-14T02:05:20.254Z,70.58
2023-03-14T02:08:28.952Z,70.28
2023-03-14T02:11:36.874Z,70.18
2023-03-14T02:14:49.273Z,69.85
2023-03-14T02:18:06.621Z,68.74
2023-03-14T02:21:55.029Z,67.78
2023-03-14T02:25:10.418Z,67.69
2023-03-14T02:28:14.026Z,67.76
2023-03-14T02:31:17.508Z,68.68
2023-03-14T02:34:20.535Z,70.57
2023-03-14T02:37:28.281Z,71.41
2023-03-14T02:40:33.957Z,72.48
2023-03-14T02:43:37.399Z,72.68
2023-03-14T02:46:44.806Z,72.68
2023-03-14T02:49:47.834Z,72.50
2023-03-14T02:52:51.753Z,72.28
2023-03-14T02:55:54.669Z,72.05
2023-03-14T02:58:59.821Z,72.52
2023-03-14T03:02:10.015Z,72.91
2023-03-14T03:05:13.086Z,72.86
2023-03-14T03:08:15.934Z,73.39
2023-03-14T03:11:19.029Z,73.81
2023-03-14T03:14:21.676Z,73.45
2023-03-14T03:17:24.436Z,74.20
2023-03-14T03:20:27.485Z,74.06
2023-03-14T03:23:30.831Z,73.70
2023-03-14T03:26:35.710Z,73.88
2023-03-14T03:29:40.986Z,73.47
2023-03-14T03:32:43.798Z,74.24
2023-03-14T03:35:50.322Z,75.01
2023-03-14T03:38:59.278Z,75.08
2023-03-14T03:42:02.395Z,74.87
2023-03-14T03:45:05.740Z,74.80
2023-03-14T03:48:12.436Z,74.27
2023-03-14T03:51:16.669Z,73.13
2023-03-14T03:54:20.120Z,71.66
2023-03-14T03:57:22.614Z,70.49
2023-03-14T04:00:28.913Z,69.15
2023-03-14T04:03:31.477Z,68.20
2023-03-14T04:06:34.819Z,67.95
2023-03-14T04:09:39.133Z,67.68
2023-03-14T04:12:54.943Z,67.69
2023-03-14T04:16:00.774Z,67.80
2023-03-14T04:19:04.783Z,67.86
2023-03-14T04:22:08.969Z,67.41
2023-03-14T04:25:21.245Z,67.59
2023-03-14T04:28:28.753Z,67.48
2023-03-14T04:31:32.357Z,67.15
2023-03-14T04:34:35.028Z,67.37
2023-03-14T04:37:38.097Z,67.06
2023-03-14T04:40:43.310Z,66.73
2023-03-14T04:43:46.354Z,67.37
2023-03-14T04:46:50.025Z,67.01
2023-03-14T04:49:52.663Z,66.84
2023-03-14T04:52:55.972Z,66.44
2023-03-14T04:55:59.411Z,67.05
2023-03-14T04:59:09.374Z,66.81
2023-03-14T05:02:14.680Z,67.37
2023-03-14T05:05:31.032Z,66.63
2023-03-14T05:08:54.246Z,66.52
2023-03-14T05:12:12.326Z,67.08
2023-03-14T05:15:44.310Z,66.60
2023-03-14T05:18:58.426Z,66.99
2023-03-14T05:22:20.054Z,67.05
2023-03-14T05:25:32.753Z,67.60
2023-03-14T05:28:58.589Z,66.98
2023-03-14T05:32:10.514Z,67.51
2023-03-14T05:35:32.684Z,67.52
2023-03-14T05:39:06.468Z,67.83
2023-03-14T05:42:27.679Z,67.46
2023-03-14T05:45:53.507Z,67.73
2023-03-14T05:49:19.331Z,67.57
2023-03-14T05:52:32.735Z,67.57
2023-03-14T05:56:04.749Z,67.92
2023-03-14T05:59:23.182Z,67.90
2023-03-14T06:02:36.875Z,67.32
2023-03-14T06:05:52.194Z,67.27
2023-03-14T06:08:57.019Z,67.14
2023-03-14T06:11:59.578Z,67.88
2023-03-14T06:15:03.505Z,68.21
2023-03-14T06:18:06.850Z,68.31
2023-03-14T06:21:11.416Z,67.36
2023-03-14T06:24:14.215Z,66.42
2023-03-14T06:27:21.722Z,66.47
2023-03-14T06:30:28.933Z,65.88
2023-03-14T06:33:32.101Z,66.16
2023-03-14T06:36:41.178Z,64.63
2023-03-14T06:39:45.514Z,65.03
2023-03-14T06:42:57.362Z,63.75
2023-03-14T06:46:02.886Z,64.16
2023-03-14T06:49:08.026Z,64.21
2023-03-14T06:52:11.339Z,63.53
2023-03-14T06:55:13.839Z,63.24
2023-03-14T06:58:16.622Z,63.71
2023-03-14T07:01:25.124Z,64.53
2023-03-14T07:04:28.774Z,65.48
2023-03-14T07:07:31.436Z,65.97
2023-03-14T07:10:34.472Z,66.02
2023-03-14T07:13:37.098Z,65.55
2023-03-14T07:16:42.328Z,66.31
2023-03-14T07:19:45.628Z,66.05
2023-03-14T07:22:51.688Z,66.33
2023-03-14T07:25:59.223Z,66.10
2023-03-14T07:29:06.046Z,63.70
2023-03-14T07:32:09.665Z,64.44
2023-03-14T07:35:12.684Z,64.06
2023-03-14T07:38:18.008Z,63.34
2023-03-14T07:41:40.446Z,62.90
2023-03-14T07:45:10.742Z,61.89
2023-03-14T07:48:13.526Z,61.09
2023-03-14T07:51:15.993Z,61.13
2023-03-14T07:54:20.226Z,61.10
2023-03-14T07:57:24.907Z,60.40
2023-03-14T08:00:28.242Z,59.70
2023-03-14T08:03:30.981Z,60.69
2023-03-14T08:06:33.582Z,59.09
2023-03-14T08:09:36.305Z,60.57
2023-03-14T08:12:39.005Z,59.89
2023-03-14T08:15:41.732Z,60.72
2023-03-14T08:18:46.128Z,60.84
2023-03-14T08:21:48.662Z,61.16
2023-03-14T08:24:51.828Z,60.77
2023-03-14T08:27:54.595Z,61.15
2023-03-14T08:31:01.594Z,61.14
2023-03-14T08:34:04.481Z,61.54
2023-03-14T08:37:16.534Z,61.65
2023-03-14T08:40:26.785Z,59.50
2023-03-14T08:43:29.697Z,59.51
2023-03-14T08:46:32.163Z,59.61
2023-03-14T08:49:34.605Z,59.29
2023-03-14T08:52:38.904Z,58.00
2023-03-14T08:55:41.517Z,57.98
2023-03-14T08:58:44.958Z,56.78
2023-03-14T09:01:47.954Z,54.51
2023-03-14T09:04:51.489Z,55.48
2023-03-14T09:07:54.123Z,53.90
2023-03-14T09:10:56.680Z,52.08
2023-03-14T09:13:59.707Z,48.89
2023-03-14T09:17:02.123Z,46.38
2023-03-14T09:20:07.932Z,44.40
2023-03-14T09:23:11.473Z,43.51
2023-03-14T09:26:14.165Z,43.16
2023-03-14T09:29:16.836Z,43.54
2023-03-14T09:32:19.438Z,44.88
2023-03-14T09:35:22.397Z,43.31
2023-03-14T09:38:25.949Z,46.09
2023-03-14T09:41:35.787Z,46.56
2023-03-14T09:45:01.814Z,46.02
2023-03-14T09:48:05.772Z,46.35
2023-03-14T09:51:28.957Z,46.41
2023-03-14T09:54:40.314Z,47.79
2023-03-14T09:57:46.093Z,48.47
2023-03-14T10:00:51.729Z,47.60
2023-03-14T10:04:01.690Z,48.71
2023-03-14T10:07:05.068Z,48.78
2023-03-14T10:10:21.577Z,48.71
2023-03-14T10:13:28.915Z,48.95
2023-03-14T10:16:33.945Z,47.41
2023-03-14T10:19:37.578Z,43.83
2023-03-14T10:22:40.111Z,40.77
2023-03-14T10:25:59.125Z,41.17
2023-03-14T10:29:11.437Z,42.61
2023-03-14T10:32:21.593Z,41.68
2023-03-14T10:35:24.688Z,42.77
2023-03-14T10:38:32.628Z,40.79
2023-03-14T10:41:35.749Z,39.21
2023-03-14T10:44:39.886Z,40.52
2023-03-14T10:47:50.761Z,38.66
2023-03-14T10:51:08.558Z,39.32
2023-03-14T10:54:20.722Z,38.96
2023-03-14T10:57:23.664Z,37.95
2023-03-14T11:00:26.533Z,37.82
2023-03-14T11:03:33.705Z,37.78
2023-03-14T11:06:45.291Z,38.03
2023-03-14T11:10:12.052Z,39.95
2023-03-14T11:13:34.694Z,39.77
2023-03-14T11:17:11.274Z,39.73
2023-03-14T11:20:36.800Z,40.35
2023-03-14T11:24:06.014Z,37.29
2023-03-14T11:27:35.392Z,36.75
2023-03-14T11:30:39.380Z,34.99
2023-03-14T11:33:52.850Z,36.21
2023-03-14T11:37:15.941Z,38.05
2023-03-14T11:40:24.878Z,36.84
2023-03-14T11:43:44.047Z,36.77
2023-03-14T11:46:49.605Z,35.79
2023-03-14T11:50:00.879Z,35.86
2023-03-14T11:53:11.687Z,35.85
2023-03-14T11:56:21.028Z,34.97
2023-03-14T12:00:01.617Z,34.34
2023-03-14T12:03:27.117Z,33.80
2023-03-14T12:06:41.892Z,34.04
2023-03-14T12:09:44.746Z,34.89
2023-03-14T12:12:48.522Z,32.99
2023-03-14T12:15:56.755Z,32.24
2023-03-14T12:19:15.738Z,33.00
2023-03-14T12:22:23.425Z,33.64
2023-03-14T12:25:28.480Z,35.04
2023-03-14T12:28:32.651Z,33.84
2023-03-14T12:31:42.736Z,32.58
2023-03-14T12:34:48.358Z,32.87
2023-03-14T12:37:56.199Z,33.01
2023-03-14T12:41:17.650Z,32.96
2023-03-14T12:44:40.619Z,32.92
2023-03-14T12:47:51.948Z,32.78
2023-03-14T12:51:05.615Z,32.31
2023-03-14T12:54:39.946Z,32.72
2023-03-14T12:58:00.454Z,34.08
2023-03-14T13:01:06.026Z,36.81
2023-03-14T13:04:12.618Z,37.22
2023-03-14T13:07:45.308Z,35.93
2023-03-14T13:10:51.192Z,34.88
2023-03-14T13:13:58.834Z,36.31
2023-03-14T13:17:19.321Z,34.84
2023-03-14T13:20:28.903Z,35.54
2023-03-14T13:23:34.331Z,34.40
2023-03-14T13:26:40.778Z,34.39
2023-03-14T13:29:43.753Z,34.62
2023-03-14T13:32:49.100Z,34.77
2023-03-14T13:36:01.314Z,34.54
2023-03-14T13:39:13.085Z,35.30
2023-03-14T13:42:17.648Z,34.61
2023-03-14T13:45:20.663Z,34.44
2023-03-14T13:48:27.865Z,34.44
2023-03-14T13:51:32.615Z,34.87
2023-03-14T13:54:35.236Z,34.98
2023-03-14T13:57:55.547Z,34.06
2023-03-14T14:01:12.449Z,36.13
2023-03-14T14:04:23.079Z,36.00
2023-03-14T14:07:25.968Z,36.39
2023-03-14T14:10:30.326Z,36.24
2023-03-14T14:13:36.359Z,36.69
2023-03-14T14:16:39.070Z,35.45
2023-03-14T14:19:44.321Z,36.28
2023-03-14T14:22:47.405Z,36.22
2023-03-14T14:25:50.628Z,36.69
2023-03-14T14:29:04.900Z,37.54
2023-03-14T14:32:13.377Z,36.51
2023-03-14T14:35:36.143Z,36.98
2023-03-14T14:38:38.986Z,37.68
2023-03-14T14:41:43.753Z,38.08
2023-03-14T14:44:46.900Z,37.64
2023-03-14T14:48:05.890Z,37.57
2023-03-14T14:51:08.812Z,37.33
2023-03-14T14:54:16.651Z,38.91
2023-03-14T14:57:31.640Z,38.87
2023-03-14T15:00:34.250Z,39.85
2023-03-14T15:03:37.190Z,40.01
2023-03-14T15:06:40.824Z,39.89
2023-03-14T15:09:44.500Z,39.19
2023-03-14T15:12:48.467Z,39.86
2023-03-14T15:15:57.295Z,40.23
2023-03-14T15:19:17.992Z,41.11
2023-03-14T15:22:26.431Z,41.23
2023-03-14T15:25:51.490Z,41.38
2023-03-14T15:28:51.844Z,40.74
2023-03-14T15:31:54.301Z,40.15
2023-03-14T15:34:57.598Z,40.73
2023-03-14T15:38:00.094Z,41.62
2023-03-14T15:41:04.115Z,40.65
2023-03-14T15:44:06.765Z,41.46
2023-03-14T15:47:11.729Z,40.64
2023-03-14T15:50:14.494Z,41.23
2023-03-14T15:53:19.901Z,41.58
2023-03-14T15:56:25.139Z,41.92
2023-03-14T15:59:27.959Z,41.82
2023-03-14T16:02:31.014Z,42.36
2023-03-14T16:05:33.668Z,43.16
2023-03-14T16:08:36.098Z,44.01
2023-03-14T16:11:39.400Z,42.93
2023-03-14T16:14:43.768Z,43.98
2023-03-14T16:17:46.637Z,44.78
2023-03-14T16:21:00.371Z,44.95
2023-03-14T16:24:06.952Z,45.02
2023-03-14T16:27:09.597Z,45.03
2023-03-14T16:30:15.792Z,44.84
2023-03-14T16:33:20.720Z,45.62
2023-03-14T16:36:23.546Z,46.02
2023-03-14T16:39:28.909Z,46.42
2023-03-14T16:42:31.867Z,46.67
2023-03-14T16:45:37.736Z,46.67
2023-03-14T16:48:40.824Z,46.90
2023-03-14T16:51:43.528Z,46.76
2023-03-14T16:54:46.511Z,46.75
2023-03-14T16:57:48.947Z,47.33
2023-03-14T17:00:52.157Z,47.63
2023-03-14T17:03:54.793Z,48.05
2023-03-14T17:06:57.941Z,48.03
2023-03-14T17:10:00.902Z,48.38
2023-03-14T17:13:03.626Z,48.49
2023-03-14T17:16:06.644Z,47.82
2023-03-14T17:19:09.572Z,47.66
2023-03-14T17:22:23.876Z,47.22
2023-03-14T17:25:27.451Z,46.93
2023-03-14T17:28:30.481Z,47.11
2023-03-14T17:31:33.430Z,47.29
2023-03-14T17:34:36.085Z,46.86
2023-03-14T17:37:38.667Z,46.99
2023-03-14T17:40:47.480Z,46.80
2023-03-14T17:43:50.554Z,47.85
2023-03-14T17:46:53.518Z,49.06
2023-03-14T17:49:56.568Z,49.99
2023-03-14T17:52:59.876Z,49.29
2023-03-14T17:56:03.558Z,52.73
2023-03-14T17:59:06.848Z,51.80
2023-03-14T18:02:11.694Z,51.44
2023-03-14T18:05:14.523Z,51.83
2023-03-14T18:08:17.919Z,50.61
2023-03-14T18:11:22.322Z,49.52
2023-03-14T18:14:25.511Z,49.88
2023-03-14T18:17:28.287Z,51.38
2023-03-14T18:20:32.369Z,51.45
2023-03-14T18:23:35.677Z,51.19
2023-03-14T18:26:39.168Z,51.07
2023-03-14T18:29:42.354Z,50.50
2023-03-14T18:32:45.607Z,50.95
2023-03-14T18:35:52.026Z,50.78
2023-03-14T18:38:57.035Z,50.59
2023-03-14T18:41:59.991Z,50.09
2023-03-14T18:45:02.878Z,50.62
2023-03-14T18:48:06.263Z,50.67
2023-03-14T18:51:17.460Z,50.72
2023-03-14T18:54:20.152Z,50.40
2023-03-14T18:57:23.329Z,47.94
2023-03-14T19:00:28.157Z,48.73
2023-03-14T19:03:32.566Z,48.37
2023-03-14T19:06:35.787Z,48.32
2023-03-14T19:09:41.137Z,48.98
2023-03-14T19:12:44.666Z,49.21
2023-03-14T19:15:48.090Z,49.21
2023-03-14T19:18:52.238Z,50.33
2023-03-14T19:21:55.318Z,50.18
2023-03-14T19:24:58.410Z,49.69
2023-03-14T19:28:01.903Z,49.35
2023-03-14T19:31:05.711Z,48.95
2023-03-14T19:34:09.358Z,50.54
2023-03-14T19:37:11.893Z,50.69
2023-03-14T19:40:15.082Z,51.06
2023-03-14T19:43:20.843Z,52.88
2023-03-14T19:46:24.304Z,51.65
2023-03-14T19:49:28.198Z,52.60
2023-03-14T19:52:31.158Z,53.18
2023-03-14T19:55:34.899Z,51.93
2023-03-14T19:58:41.288Z,52.13
2023-03-14T20:01:48.718Z,53.02
2023-03-14T20:04:54.536Z,59.14
2023-03-14T20:07:57.809Z,64.45
2023-03-14T20:11:04.948Z,66.82
2023-03-14T20:14:09.259Z,67.52
2023-03-14T20:17:12.305Z,68.09
2023-03-14T20:20:18.374Z,69.34
2023-03-14T20:23:22.001Z,70.45
2023-03-14T20:26:26.993Z,71.79
2023-03-14T20:29:30.306Z,73.25
2023-03-14T20:32:34.728Z,73.95
2023-03-14T20:35:39.055Z,74.71
2023-03-14T20:38:41.794Z,75.27
2023-03-14T20:41:45.265Z,76.01
2023-03-14T20:44:48.068Z,76.58
2023-03-14T20:47:51.131Z,77.79
2023-03-14T20:50:55.265Z,77.86
2023-03-14T20:53:58.342Z,78.98
2023-03-14T20:57:01.246Z,79.80
2023-03-14T21:00:07.910Z,80.39
2023-03-14T21:03:14.408Z,81.13
2023-03-14T21:06:17.686Z,81.65
2023-03-14T21:09:25.249Z,81.86
2023-03-14T21:12:29.126Z,82.53
2023-03-14T21:15:31.891Z,81.91
2023-03-14T21:18:35.290Z,82.27
2023-03-14T21:21:38.217Z,82.79
2023-03-14T21:24:41.322Z,83.33
2023-03-14T21:27:44.195Z,84.43
2023-03-14T21:30:47.189Z,86.47
2023-03-14T21:33:50.502Z,87.29
2023-03-14T21:36:54.098Z,86.58
2023-03-14T21:39:57.802Z,87.24
2023-03-14T21:43:01.627Z,88.03
2023-03-14T21:46:04.494Z,90.18
2023-03-14T21:49:07.473Z,91.74
2023-03-14T21:52:13.632Z,90.74
2023-03-14T21:55:18.090Z,89.80
2023-03-14T21:58:20.861Z,88.91
2023-03-14T22:01:23.979Z,89.28
2023-03-14T22:04:34.584Z,91.16
2023-03-14T22:07:37.541Z,92.40
2023-03-14T22:10:47.901Z,90.08
2023-03-14T22:13:51.056Z,92.75
2023-03-14T22:16:54.397Z,93.32
2023-03-14T22:19:57.126Z,93.51
2023-03-14T22:22:59.914Z,94.34
2023-03-14T22:26:02.564Z,94.81
2023-03-14T22:29:05.691Z,94.18
2023-03-14T22:32:08.993Z,93.95
2023-03-14T22:35:11.531Z,93.59
2023-03-14T22:38:14.751Z,94.67
2023-03-14T22:41:17.315Z,95.34
2023-03-14T22:44:20.834Z,96.06
2023-03-14T22:47:23.344Z,95.24
2023-03-14T22:50:26.681Z,95.17
2023-03-14T22:53:29.289Z,94.76
2023-03-14T22:56:32.180Z,96.28
2023-03-14T22:59:34.716Z,96.85
2023-03-14T23:02:38.454Z,96.79
2023-03-14T23:05:40.941Z,97.88
2023-03-14T23:08:44.191Z,99.16
2023-03-14T23:11:46.592Z,98.89
2023-03-14T23:14:49.697Z,98.20
2023-03-14T23:17:52.223Z,99.04
2023-03-14T23:21:08.723Z,98.77
2023-03-14T23:24:11.304Z,99.11
2023-03-14T23:27:14.407Z,98.97
2023-03-14T23:30:17.447Z,98.39
2023-03-14T23:33:21.513Z,98.37
2023-03-14T23:36:24.245Z,98.97
2023-03-14T23:39:27.070Z,98.08
2023-03-14T23:42:29.601Z,96.23
2023-03-14T23:45:32.733Z,97.52
2023-03-14T23:48:35.379Z,97.29
2023-03-14T23:51:38.329Z,97.43
2023-03-14T23:54:41.366Z,97.07
2023-03-14T23:57:44.228Z,97.98
